Time;durP1;ratioP1;P1;durP2;ratioP2;P2;SDS_P1;SDS_P2;PMS_P1;PMS_P2;Temp;Humidity;BMP_temperature;BMP_pressure;BME280_temperature;BME280_humidity;BME280_pressure;Samples;Min_cycle;Max_cycle;Signal;HPM_P1;HPM_P2
2024/02/29 00:02:00;;;;;;;;;;;;;;;1.48;100.00;96733.19;5067737;28;19942;-73
2024/02/29 00:04:30;;;;;;;;;;;;;;;1.47;100.00;96731.56;5033536;28;20233;-72
2024/02/29 00:06:56;;;;;;;;;;;;;;;1.42;100.00;96730.25;5049116;28;19945;-73
2024/02/29 00:09:22;;;;;;;;;;;;;;;1.42;100.00;96727.66;5032751;28;19981;-73
2024/02/29 00:11:49;;;;;;;;;;;;;;;1.41;100.00;96714.91;5066941;28;20153;-72
2024/02/29 00:14:15;;;;;;;;;;;;;;;1.39;100.00;96716.84;5049731;28;19934;-72
2024/02/29 00:16:43;;;;;;;;;;;;;;;1.37;100.00;96716.19;5033373;28;19941;-77
2024/02/29 00:19:09;;;;;;;;;;;;;;;1.35;100.00;96712.94;5048767;28;19944;-74
2024/02/29 00:21:35;;;;;;;;;;;;;;;1.34;100.00;96711.31;5049056;28;19942;-80
2024/02/29 00:24:01;;;;;;;;;;;;;;;1.34;100.00;96711.31;5066669;28;20023;-80
2024/02/29 00:26:27;;;;;;;;;;;;;;;1.32;100.00;96711.44;5049720;28;19936;-80
2024/02/29 00:28:53;;;;;;;;;;;;;;;1.32;100.00;96711.44;5066686;28;19931;-80
2024/02/29 00:31:19;;;;;;;;;;;;;;;1.32;100.00;96713.22;5067212;28;20114;-80
2024/02/29 00:33:45;;;;;;;;;;;;;;;1.31;100.00;96711.63;5067137;28;19933;-79
2024/02/29 00:36:11;;;;;;;;;;;;;;;1.28;100.00;96707.56;5066927;28;20203;-79
2024/02/29 00:38:38;;;;;;;;;;;;;;;1.28;100.00;96710.16;5067067;28;19994;-75
2024/02/29 00:41:04;;;;;;;;;;;;;;;1.25;100.00;96702.69;5047666;28;19934;-74
2024/02/29 00:43:30;;;;;;;;;;;;;;;1.25;100.00;96704.47;5048600;28;19958;-74
2024/02/29 00:45:56;;;;;;;;;;;;;;;1.21;100.00;96698.81;5048536;28;19944;-75
2024/02/29 00:48:21;;;;;;;;;;;;;;;1.19;100.00;96698.13;5049397;28;19936;-75
2024/02/29 00:50:47;;;;;;;;;;;;;;;1.17;100.00;96703.44;5067041;28;19941;-74
2024/02/29 00:53:13;;;;;;;;;;;;;;;1.14;100.00;96703.78;5066977;28;19939;-72
2024/02/29 00:55:39;;;;;;;;;;;;;;;1.12;100.00;96699.72;5031848;28;20144;-73
2024/02/29 00:58:05;;;;;;;;;;;;;;;1.08;100.00;96706.97;5031689;28;20171;-74
2024/02/29 01:00:31;;;;;;;;;;;;;;;1.08;100.00;96704.38;5031711;28;19937;-75
2024/02/29 01:02:57;;;;;;;;;;;;;;;1.06;100.00;96692.59;5066159;28;19939;-74
2024/02/29 01:05:23;;;;;;;;;;;;;;;1.04;100.00;96692.72;5065983;28;19947;-75
2024/02/29 01:07:48;;;;;;;;;;;;;;;1.03;100.00;96683.38;5066124;28;19939;-74
2024/02/29 01:10:14;;;;;;;;;;;;;;;1.00;100.00;96679.28;5048117;28;19949;-74
2024/02/29 01:12:41;;;;;;;;;;;;;;;0.99;100.00;96685.44;5048690;28;19991;-75
2024/02/29 01:15:08;;;;;;;;;;;;;;;0.99;100.00;96687.22;5047883;28;19951;-73
2024/02/29 01:17:34;;;;;;;;;;;;;;;0.98;100.00;96688.97;5048600;28;20227;-73
2024/02/29 01:19:59;;;;;;;;;;;;;;;0.96;100.00;96688.31;5031412;28;19976;-73
2024/02/29 01:22:25;;;;;;;;;;;;;;;0.95;100.00;96673.00;5031903;28;20009;-73
2024/02/29 01:24:51;;;;;;;;;;;;;;;0.93;100.00;96672.31;5031250;28;19959;-73
2024/02/29 01:27:17;;;;;;;;;;;;;;;0.91;100.00;96667.31;5032070;28;19953;-73
2024/02/29 01:29:43;;;;;;;;;;;;;;;0.89;100.00;96669.22;5047646;28;19943;-73
2024/02/29 01:32:09;;;;;;;;;;;;;;;0.86;100.00;96677.28;5031219;28;20222;-79
2024/02/29 01:34:35;;;;;;;;;;;;;;;0.85;100.00;96670.50;5048425;28;19947;-74
2024/02/29 01:37:02;;;;;;;;;;;;;;;0.84;100.00;96674.06;5065196;28;20140;-74
2024/02/29 01:39:28;;;;;;;;;;;;;;;0.83;100.00;96676.78;5047543;28;19945;-74
2024/02/29 01:41:55;;;;;;;;;;;;;;;0.81;100.00;96669.97;5065329;28;20290;-74
2024/02/29 01:44:22;;;;;;;;;;;;;;;0.82;100.00;96668.22;5048214;28;19957;-74
2024/02/29 01:46:48;;;;;;;;;;;;;;;0.81;100.00;96672.56;5066268;28;19943;-74
2024/02/29 01:49:15;;;;;;;;;;;;;;;0.82;100.00;96663.06;5065923;28;19944;-73
2024/02/29 01:51:41;;;;;;;;;;;;;;;0.81;100.00;96651.09;5047446;28;20108;-75
2024/02/29 01:54:07;;;;;;;;;;;;;;;0.80;100.00;96667.56;5065761;28;19936;-74
2024/02/29 01:56:33;;;;;;;;;;;;;;;0.79;100.00;96661.56;5047826;28;20020;-74
2024/02/29 01:58:59;;;;;;;;;;;;;;;0.78;100.00;96661.75;5064963;28;20222;-74
2024/02/29 02:01:25;;;;;;;;;;;;;;;0.77;100.00;96660.91;5048053;28;19936;-74
2024/02/29 02:03:51;;;;;;;;;;;;;;;0.76;100.00;96651.56;5064781;28;19964;-73
2024/02/29 02:06:17;;;;;;;;;;;;;;;0.75;100.00;96647.34;5064775;28;20247;-74
2024/02/29 02:08:43;;;;;;;;;;;;;;;0.77;100.00;96649.78;5064977;28;19957;-71
2024/02/29 02:11:08;;;;;;;;;;;;;;;0.76;100.00;96648.97;5030568;28;19942;-73
2024/02/29 02:13:34;;;;;;;;;;;;;;;0.77;100.00;96644.63;5046844;28;19946;-73
2024/02/29 02:16:00;;;;;;;;;;;;;;;0.77;100.00;96637.69;5065324;28;19981;-73
2024/02/29 02:18:26;;;;;;;;;;;;;;;0.78;100.00;96641.91;5046830;28;19963;-72
2024/02/29 02:20:54;;;;;;;;;;;;;;;0.80;100.00;96644.34;5030170;28;19947;-73
2024/02/29 02:23:21;;;;;;;;;;;;;;;0.80;100.00;96639.97;5064928;28;19985;-73
2024/02/29 02:25:47;;;;;;;;;;;;;;;0.80;100.00;96636.59;5046805;28;19940;-75
2024/02/29 02:28:13;;;;;;;;;;;;;;;0.80;100.00;96634.00;5047331;28;20239;-72
2024/02/29 02:30:39;;;;;;;;;;;;;;;0.80;100.00;96634.00;5030941;28;19968;-79
2024/02/29 02:33:05;;;;;;;;;;;;;;;0.81;100.00;96635.63;5046216;28;20269;-79
2024/02/29 02:35:33;;;;;;;;;;;;;;;0.81;100.00;96626.09;5046447;28;19944;-79
2024/02/29 02:38:00;;;;;;;;;;;;;;;0.80;100.00;96626.25;5064770;28;20123;-80
2024/02/29 02:40:25;;;;;;;;;;;;;;;0.77;100.00;96617.03;5047063;28;19946;-80
2024/02/29 02:42:51;;;;;;;;;;;;;;;0.77;100.00;96616.22;5064744;28;19985;-80
2024/02/29 02:45:17;;;;;;;;;;;;;;;0.74;100.00;96614.75;5064553;28;19951;-72
2024/02/29 02:47:43;;;;;;;;;;;;;;;0.72;100.00;96608.13;5064087;28;20123;-74
2024/02/29 02:50:10;;;;;;;;;;;;;;;0.69;100.00;96605.84;5030618;28;19942;-74
2024/02/29 02:52:36;;;;;;;;;;;;;;;0.65;100.00;96601.94;5029692;28;19949;-74
2024/02/29 02:55:02;;;;;;;;;;;;;;;0.63;100.00;96596.13;5064474;28;19939;-74
2024/02/29 02:57:28;;;;;;;;;;;;;;;0.60;100.00;96592.09;5046987;28;19948;-74
2024/02/29 02:59:54;;;;;;;;;;;;;;;0.58;100.00;96589.66;5063884;28;20089;-74
2024/02/29 03:02:20;;;;;;;;;;;;;;;0.55;100.00;96589.97;5030554;28;19940;-79
2024/02/29 03:04:46;;;;;;;;;;;;;;;0.53;100.00;96575.59;5063427;28;19962;-71
2024/02/29 03:07:12;;;;;;;;;;;;;;;0.51;100.00;96573.16;5030290;28;19965;-79
2024/02/29 03:09:38;;;;;;;;;;;;;;;0.49;100.00;96571.69;5063821;28;19981;-79
2024/02/29 03:12:04;;;;;;;;;;;;;;;0.47;100.00;96564.09;5029497;28;20043;-80
2024/02/29 03:14:30;;;;;;;;;;;;;;;0.46;100.00;96562.47;5046436;28;19941;-79
2024/02/29 03:16:56;;;;;;;;;;;;;;;0.46;100.00;96566.81;5046117;28;19940;-79
2024/02/29 03:19:22;;;;;;;;;;;;;;;0.44;100.00;96559.22;5046834;28;19946;-80
2024/02/29 03:21:47;;;;;;;;;;;;;;;0.43;100.00;96555.03;5063770;28;19999;-79
2024/02/29 03:24:13;;;;;;;;;;;;;;;0.40;100.00;96556.16;5063652;28;19957;-72
2024/02/29 03:26:39;;;;;;;;;;;;;;;0.39;100.00;96548.56;5029489;28;19943;-72
2024/02/29 03:29:06;;;;;;;;;;;;;;;0.36;100.00;96547.09;5030271;28;19938;-72
2024/02/29 03:31:32;;;;;;;;;;;;;;;0.35;100.00;96548.06;5029171;28;19939;-72
2024/02/29 03:33:59;;;;;;;;;;;;;;;0.35;100.00;96553.22;5046729;28;20286;-72
2024/02/29 03:36:27;;;;;;;;;;;;;;;0.33;100.00;96552.56;5045615;28;19968;-72
2024/02/29 03:38:52;;;;;;;;;;;;;;;0.33;100.00;96554.34;5045870;28;19939;-79
2024/02/29 03:41:18;;;;;;;;;;;;;;;0.32;100.00;96563.03;5045775;28;20224;-71
2024/02/29 03:43:44;;;;;;;;;;;;;;;0.31;100.00;96561.41;5064012;28;19954;-72
2024/02/29 03:46:10;;;;;;;;;;;;;;;0.30;100.00;96563.19;5046502;28;20159;-72
2024/02/29 03:48:36;;;;;;;;;;;;;;;0.28;100.00;96562.53;5029320;28;20224;-72
2024/02/29 03:51:02;;;;;;;;;;;;;;;0.29;100.00;96561.56;5029914;28;19942;-72
2024/02/29 03:53:28;;;;;;;;;;;;;;;0.30;100.00;96560.59;5046439;28;19943;-72
2024/02/29 03:55:54;;;;;;;;;;;;;;;0.31;100.00;96569.16;5063923;28;19954;-72
2024/02/29 03:58:19;;;;;;;;;;;;;;;0.31;100.00;96554.47;5045743;28;20230;-79
2024/02/29 04:00:45;;;;;;;;;;;;;;;0.28;100.00;96564.31;5029184;28;19939;-72
2024/02/29 04:03:11;;;;;;;;;;;;;;;0.24;100.00;96561.22;5045750;28;19936;-72
2024/02/29 04:05:37;;;;;;;;;;;;;;;0.19;100.00;96558.28;5064057;28;19960;-71
2024/02/29 04:08:03;;;;;;;;;;;;;;;0.11;100.00;96561.59;5063646;28;19952;-72
2024/02/29 04:10:32;;;;;;;;;;;;;;;0.11;100.00;96559.03;5063832;28;19946;-71
2024/02/29 04:12:58;;;;;;;;;;;;;;;0.12;100.00;96563.19;5063476;28;20131;-72
2024/02/29 04:15:24;;;;;;;;;;;;;;;0.15;100.00;96554.38;5063799;28;19954;-72
2024/02/29 04:17:50;;;;;;;;;;;;;;;0.15;100.00;96560.34;5066908;28;20229;-72
2024/02/29 04:20:16;;;;;;;;;;;;;;;0.16;100.00;96561.13;5049922;28;19971;-79
2024/02/29 04:22:42;;;;;;;;;;;;;;;0.13;100.00;96551.94;5049159;28;20130;-80
2024/02/29 04:25:10;;;;;;;;;;;;;;;0.10;100.00;96554.81;5066684;28;19949;-79
2024/02/29 04:27:37;;;;;;;;;;;;;;;0.12;100.00;96550.31;5033245;28;19946;-79
2024/02/29 04:30:03;;;;;;;;;;;;;;;0.12;100.00;96546.94;5048845;28;20249;-79
2024/02/29 04:32:29;;;;;;;;;;;;;;;0.17;100.00;96555.03;5049623;28;20137;-79
2024/02/29 04:34:56;;;;;;;;;;;;;;;0.18;100.00;96551.50;5048730;28;19942;-78
2024/02/29 04:37:22;;;;;;;;;;;;;;;0.19;100.00;96546.19;5065466;28;19977;-79
2024/02/29 04:39:48;;;;;;;;;;;;;;;0.21;100.00;96546.03;5049457;28;19945;-79
2024/02/29 04:42:13;;;;;;;;;;;;;;;0.22;100.00;96545.06;5066465;28;19950;-79
2024/02/29 04:44:39;;;;;;;;;;;;;;;0.25;100.00;96549.13;5066390;28;19962;-79
2024/02/29 04:47:07;;;;;;;;;;;;;;;0.24;100.00;96540.56;5066340;28;19937;-79
2024/02/29 04:49:33;;;;;;;;;;;;;;;0.26;100.00;96536.06;5049400;28;19940;-79
2024/02/29 04:51:59;;;;;;;;;;;;;;;0.27;100.00;96531.72;5049259;28;20124;-80
2024/02/29 04:54:25;;;;;;;;;;;;;;;0.26;100.00;96528.34;5066226;28;19940;-79
2024/02/29 04:56:51;;;;;;;;;;;;;;;0.27;100.00;96524.78;5048302;28;20002;-74
2024/02/29 04:59:16;;;;;;;;;;;;;;;0.27;100.00;96524.78;5066047;28;19941;-74
2024/02/29 05:01:43;;;;;;;;;;;;;;;0.28;100.00;96528.19;5049016;28;19943;-74
2024/02/29 05:04:09;;;;;;;;;;;;;;;0.26;100.00;96527.53;5032131;28;19955;-73
2024/02/29 05:06:36;;;;;;;;;;;;;;;0.26;100.00;96525.75;5066275;28;19948;-74
2024/02/29 05:09:02;;;;;;;;;;;;;;;0.24;100.00;96519.13;5048070;28;20257;-74
2024/02/29 05:11:29;;;;;;;;;;;;;;;0.20;100.00;96516.84;5048880;28;19941;-73
2024/02/29 05:13:55;;;;;;;;;;;;;;;0.18;100.00;96523.91;5048194;28;19935;-74
2024/02/29 05:16:21;;;;;;;;;;;;;;;0.16;100.00;96520.69;5065767;28;19941;-74
2024/02/29 05:18:46;;;;;;;;;;;;;;;0.05;100.00;96509.81;5032264;28;19933;-75
2024/02/29 05:21:13;;;;;;;;;;;;;;;-0.07;100.00;96515.19;5031527;28;20021;-74
2024/02/29 05:23:39;;;;;;;;;;;;;;;-0.20;100.00;96507.06;5031459;28;19949;-74
2024/02/29 05:26:05;;;;;;;;;;;;;;;-0.26;100.00;96518.75;5047670;28;19972;-74
2024/02/29 05:28:30;;;;;;;;;;;;;;;-0.29;100.00;96523.41;5031925;28;19977;-74
2024/02/29 05:30:57;;;;;;;;;;;;;;;-0.27;100.00;96517.16;5048510;28;19942;-74
2024/02/29 05:33:23;;;;;;;;;;;;;;;-0.24;100.00;96510.88;5047794;28;19937;-73
2024/02/29 05:35:51;;;;;;;;;;;;;;;-0.25;100.00;96510.06;5031647;28;19970;-73
2024/02/29 05:38:17;;;;;;;;;;;;;;;-0.38;100.00;96511.41;5031887;28;19947;-72
2024/02/29 05:40:43;;;;;;;;;;;;;;;-0.50;100.00;96505.66;5047616;28;20240;-73
2024/02/29 05:43:09;;;;;;;;;;;;;;;-0.59;100.00;96507.34;5066036;28;19935;-73
2024/02/29 05:45:35;;;;;;;;;;;;;;;-0.67;100.00;96499.56;5048074;28;19963;-73
2024/02/29 05:48:00;;;;;;;;;;;;;;;-0.68;100.00;96501.31;5047452;28;19943;-73
2024/02/29 05:50:26;;;;;;;;;;;;;;;-0.62;100.00;96502.50;5031715;28;19944;-74
2024/02/29 05:52:52;;;;;;;;;;;;;;;-0.58;100.00;96492.72;5065148;28;19966;-79
2024/02/29 05:55:22;;;;;;;;;;;;;;;-0.51;100.00;96494.53;5065032;28;19943;-79
2024/02/29 05:57:47;;;;;;;;;;;;;;;-0.45;100.00;96488.00;5065545;28;19940;-79
2024/02/29 06:00:13;;;;;;;;;;;;;;;-0.41;100.00;96481.59;5064969;28;19942;-79
2024/02/29 06:02:39;;;;;;;;;;;;;;;-0.36;100.00;96483.72;5065186;28;19939;-79
2024/02/29 06:05:07;;;;;;;;;;;;;;;-0.45;100.00;96481.06;5065055;28;20324;-79
2024/02/29 06:07:34;;;;;;;;;;;;;;;-0.65;100.00;96482.16;5064785;28;19933;-72
2024/02/29 06:10:01;;;;;;;;;;;;;;;-0.66;100.00;96488.28;5030592;28;19945;-76
2024/02/29 06:12:29;;;;;;;;;;;;;;;-0.69;100.00;96476.53;5064723;28;20157;-75
2024/02/29 06:14:55;;;;;;;;;;;;;;;-0.66;100.00;96475.41;5031227;28;19939;-74
2024/02/29 06:17:20;;;;;;;;;;;;;;;-0.63;100.00;96470.78;5065459;28;19936;-74
2024/02/29 06:19:46;;;;;;;;;;;;;;;-0.58;100.00;96472.91;5064999;28;19932;-75
2024/02/29 06:22:12;;;;;;;;;;;;;;;-0.54;100.00;96469.09;5064595;28;20210;-74
2024/02/29 06:24:38;;;;;;;;;;;;;;;-0.49;100.00;96468.63;5064683;28;19976;-79
2024/02/29 06:27:04;;;;;;;;;;;;;;;-0.45;100.00;96472.53;5064482;28;19982;-73
2024/02/29 06:29:30;;;;;;;;;;;;;;;-0.41;100.00;96463.56;5030206;28;19941;-79
2024/02/29 06:31:57;;;;;;;;;;;;;;;-0.40;100.00;96460.00;5064373;28;19940;-79
2024/02/29 06:34:23;;;;;;;;;;;;;;;-0.38;100.00;96452.94;5047170;28;19947;-78
2024/02/29 06:36:49;;;;;;;;;;;;;;;-0.37;100.00;96454.56;5046349;28;20160;-79
2024/02/29 06:39:15;;;;;;;;;;;;;;;-0.34;100.00;96451.69;5064410;28;20013;-79
2024/02/29 06:41:42;;;;;;;;;;;;;;;-0.32;100.00;96443.81;5064240;28;19970;-78
2024/02/29 06:44:08;;;;;;;;;;;;;;;-0.32;100.00;96442.03;5064397;28;19940;-72
2024/02/29 06:46:34;;;;;;;;;;;;;;;-0.37;100.00;96444.25;5030063;28;19946;-79
2024/02/29 06:49:00;;;;;;;;;;;;;;;-0.32;100.00;96447.19;5064158;28;19941;-79
2024/02/29 06:51:27;;;;;;;;;;;;;;;-0.27;100.00;96442.41;5064088;28;19939;-80
2024/02/29 06:53:53;;;;;;;;;;;;;;;-0.22;100.00;96447.91;5046212;28;19936;-80
2024/02/29 06:56:19;;;;;;;;;;;;;;;-0.21;100.00;96439.25;5046179;28;20130;-79
2024/02/29 06:58:47;;;;;;;;;;;;;;;-0.17;100.00;96434.56;5063215;28;20422;-79
2024/02/29 07:01:13;;;;;;;;;;;;;;;-0.15;100.00;96444.75;5063943;28;19952;-79
2024/02/29 07:03:39;;;;;;;;;;;;;;;-0.12;100.00;96449.59;5064769;28;19944;-74
2024/02/29 07:06:05;;;;;;;;;;;;;;;-0.13;100.00;96441.03;5064532;28;19962;-71
2024/02/29 07:08:34;;;;;;;;;;;;;;;-0.22;100.00;96447.13;5045971;28;19962;-71
2024/02/29 07:11:00;;;;;;;;;;;;;;;-0.29;100.00;96448.69;5064613;28;20207;-71
2024/02/29 07:13:26;;;;;;;;;;;;;;;-0.29;100.00;96449.50;5064340;28;19935;-71
2024/02/29 07:15:53;;;;;;;;;;;;;;;-0.34;100.00;96441.38;5064619;28;19957;-71
2024/02/29 07:18:19;;;;;;;;;;;;;;;-0.35;100.00;96438.97;5063758;28;20240;-71
2024/02/29 07:20:44;;;;;;;;;;;;;;;-0.40;100.00;96444.56;5064333;28;19935;-79
2024/02/29 07:23:10;;;;;;;;;;;;;;;-0.44;100.00;96433.75;5063600;28;19940;-72
2024/02/29 07:25:36;;;;;;;;;;;;;;;-0.44;100.00;96440.69;5063858;28;20127;-72
2024/02/29 07:28:03;;;;;;;;;;;;;;;-0.41;100.00;96441.16;5063654;28;19945;-72
2024/02/29 07:30:30;;;;;;;;;;;;;;;-0.29;100.00;96441.75;5045981;28;20224;-71
2024/02/29 07:33:01;;;;;;;;;;;;;;;-0.21;100.00;96448.72;5063627;28;19944;-72
2024/02/29 07:35:27;;;;;;;;;;;;;;;-0.22;100.00;96445.34;5063981;28;19936;-72
2024/02/29 07:37:53;;;;;;;;;;;;;;;-0.24;100.00;96441.31;5063593;28;19940;-74
2024/02/29 07:40:19;;;;;;;;;;;;;;;-0.16;100.00;96443.13;5064159;28;19944;-79
2024/02/29 07:42:45;;;;;;;;;;;;;;;-0.04;100.00;96434.19;5064102;28;19942;-74
2024/02/29 07:45:11;;;;;;;;;;;;;;;-0.02;100.00;96434.84;5045615;28;19957;-73
2024/02/29 07:47:38;;;;;;;;;;;;;;;-0.12;100.00;96441.88;5029265;28;19944;-73
2024/02/29 07:50:05;;;;;;;;;;;;;;;-0.24;100.00;96441.31;5065636;28;19945;-73
2024/02/29 07:52:31;;;;;;;;;;;;;;;-0.35;100.00;96437.19;5067650;28;19944;-73
2024/02/29 07:54:58;;;;;;;;;;;;;;;-0.44;100.00;96449.22;5050238;28;19943;-73
2024/02/29 07:57:24;;;;;;;;;;;;;;;-0.42;100.00;96442.16;5067361;28;19936;-74
2024/02/29 07:59:50;;;;;;;;;;;;;;;-0.27;100.00;96441.63;5049568;28;19946;-77
2024/02/29 08:02:16;;;;;;;;;;;;;;;-0.20;100.00;96434.88;5050008;28;19936;-78
2024/02/29 08:04:42;;;;;;;;;;;;;;;-0.18;100.00;96438.13;5050043;28;19958;-77
2024/02/29 08:07:10;;;;;;;;;;;;;;;-0.03;100.00;96433.22;5049413;28;19940;-78
2024/02/29 08:09:36;;;;;;;;;;;;;;;0.14;100.00;96432.34;5050132;28;19959;-78
2024/02/29 08:12:03;;;;;;;;;;;;;;;0.28;100.00;96427.59;5066994;28;19936;-78
2024/02/29 08:14:29;;;;;;;;;;;;;;;0.25;100.00;96423.53;5067802;28;19928;-77
2024/02/29 08:16:55;;;;;;;;;;;;;;;0.28;100.00;96425.81;5049205;28;19959;-80
2024/02/29 08:19:21;;;;;;;;;;;;;;;0.37;100.00;96427.47;5049047;28;19946;-74
2024/02/29 08:21:47;;;;;;;;;;;;;;;0.45;100.00;96413.00;5049704;28;19951;-75
2024/02/29 08:24:13;;;;;;;;;;;;;;;0.48;100.00;96416.06;5067570;28;19945;-74
2024/02/29 08:26:39;;;;;;;;;;;;;;;0.63;100.00;96416.31;5048928;28;19955;-75
2024/02/29 08:29:05;;;;;;;;;;;;;;;0.79;100.00;96416.34;5067202;28;19935;-75
2024/02/29 08:31:31;;;;;;;;;;;;;;;0.97;100.00;96398.16;5066572;28;19939;-74
2024/02/29 08:33:57;;;;;;;;;;;;;;;1.13;100.00;96399.13;5048690;28;19940;-77
2024/02/29 08:36:23;;;;;;;;;;;;;;;1.20;100.00;96392.38;5048603;28;20039;-72
2024/02/29 08:38:49;;;;;;;;;;;;;;;1.22;100.00;96393.03;5048836;28;20265;-71
2024/02/29 08:41:15;;;;;;;;;;;;;;;1.47;100.00;96388.69;5049250;28;19945;-71
2024/02/29 08:43:42;;;;;;;;;;;;;;;1.70;100.00;96375.91;5049362;28;20002;-71
2024/02/29 08:46:08;;;;;;;;;;;;;;;1.90;100.00;96380.72;5066315;28;19958;-71
2024/02/29 08:48:35;;;;;;;;;;;;;;;2.24;100.00;96368.31;5049265;28;19948;-71
2024/02/29 08:51:01;;;;;;;;;;;;;;;2.48;100.00;96361.44;5049243;28;19941;-71
2024/02/29 08:53:27;;;;;;;;;;;;;;;2.71;100.00;96364.06;5065666;28;19939;-71
2024/02/29 08:55:53;;;;;;;;;;;;;;;2.92;100.00;96357.47;5066239;28;20258;-74
2024/02/29 08:58:19;;;;;;;;;;;;;;;3.12;100.00;96343.06;5066203;28;19942;-75
2024/02/29 09:00:45;;;;;;;;;;;;;;;3.21;100.00;96349.84;5049044;28;19938;-75
2024/02/29 09:03:13;;;;;;;;;;;;;;;3.23;100.00;96353.06;5066261;28;19937;-75
2024/02/29 09:05:39;;;;;;;;;;;;;;;3.29;100.00;96338.56;5048830;28;19981;-75
2024/02/29 09:08:05;;;;;;;;;;;;;;;3.11;100.00;96333.72;5048162;28;19960;-75
2024/02/29 09:10:31;;;;;;;;;;;;;;;2.97;100.00;96348.22;5048341;28;19938;-71
2024/02/29 09:12:57;;;;;;;;;;;;;;;3.05;100.00;96353.34;5048238;28;19943;-73
2024/02/29 09:15:23;;;;;;;;;;;;;;;3.11;100.00;96349.25;5065821;28;19935;-73
2024/02/29 09:17:49;;;;;;;;;;;;;;;3.12;100.00;96340.50;5048195;28;19939;-73
2024/02/29 09:20:15;;;;;;;;;;;;;;;3.50;100.00;96343.09;5066309;28;19948;-73
2024/02/29 09:22:41;;;;;;;;;;;;;;;4.01;100.00;96322.50;5031473;28;19943;-73
2024/02/29 09:25:07;;;;;;;;;;;;;;;4.30;100.00;96317.47;5065568;28;19960;-73
2024/02/29 09:27:33;;;;;;;;;;;;;;;4.59;100.00;96304.41;5048216;28;20124;-73
2024/02/29 09:29:58;;;;;;;;;;;;;;;4.88;100.00;96287.91;5065619;28;19938;-72
2024/02/29 09:32:24;;;;;;;;;;;;;;;5.00;100.00;96290.84;5048217;28;19990;-74
2024/02/29 09:34:50;;;;;;;;;;;;;;;5.12;100.00;96291.13;5066039;28;19937;-73
2024/02/29 09:37:16;;;;;;;;;;;;;;;5.34;100.00;96280.72;5047436;28;19972;-72
2024/02/29 09:39:42;;;;;;;;;;;;;;;5.42;100.00;96272.78;5065399;28;19948;-75
2024/02/29 09:42:09;;;;;;;;;;;;;;;5.69;100.00;96271.13;5065383;28;19935;-75
2024/02/29 09:44:35;;;;;;;;;;;;;;;6.04;100.00;96248.53;5065336;28;20218;-75
2024/02/29 09:47:02;;;;;;;;;;;;;;;6.39;100.00;96214.59;5047383;28;20123;-69
2024/02/29 09:49:28;;;;;;;;;;;;;;;6.61;100.00;96212.63;5065216;28;19940;-72
2024/02/29 09:51:54;;;;;;;;;;;;;;;6.70;100.00;96192.41;5065131;28;19938;-77
2024/02/29 09:54:21;;;;;;;;;;;;;;;6.72;100.00;96177.38;5065657;28;20201;-75
2024/02/29 09:56:47;;;;;;;;;;;;;;;6.89;100.00;96198.63;5047250;28;19939;-77
2024/02/29 09:59:15;;;;;;;;;;;;;;;6.94;100.00;96175.38;5065566;28;19941;-76
2024/02/29 10:01:43;;;;;;;;;;;;;;;6.97;100.00;96172.38;5065013;28;19944;-75
2024/02/29 10:04:09;;;;;;;;;;;;;;;7.07;100.00;96188.38;5064898;28;19940;-75
2024/02/29 10:06:35;;;;;;;;;;;;;;;7.37;100.00;96171.50;5064878;28;19954;-73
2024/02/29 10:09:01;;;;;;;;;;;;;;;7.53;100.00;96143.16;5065078;28;20011;-74
2024/02/29 10:11:30;;;;;;;;;;;;;;;7.67;100.00;96170.00;5064748;28;19977;-74
2024/02/29 10:13:57;;;;;;;;;;;;;;;7.75;100.00;96140.28;5064045;28;19941;-74
2024/02/29 10:16:23;;;;;;;;;;;;;;;7.79;100.00;96162.34;5065461;28;19971;-74
2024/02/29 10:18:49;;;;;;;;;;;;;;;7.98;100.00;96163.28;5064557;28;19945;-74
2024/02/29 10:21:15;;;;;;;;;;;;;;;8.30;100.00;96151.03;5065359;28;20195;-74
2024/02/29 10:23:42;;;;;;;;;;;;;;;8.60;100.00;96153.09;5046811;28;19943;-71
2024/02/29 10:26:08;;;;;;;;;;;;;;;8.79;100.00;96135.63;5065249;28;19959;-75
2024/02/29 10:28:34;;;;;;;;;;;;;;;8.98;100.00;96125.22;5047336;28;19933;-70
2024/02/29 10:31:01;;;;;;;;;;;;;;;9.10;100.00;96123.50;5064996;28;19931;-70
2024/02/29 10:33:28;;;;;;;;;;;;;;;9.22;97.19;96072.06;5064395;28;20115;-70
2024/02/29 10:35:54;;;;;;;;;;;;;;;9.17;100.00;96103.31;5046563;28;19969;-70
2024/02/29 10:38:23;;;;;;;;;;;;;;;9.31;100.00;96117.06;5064749;28;19939;-70
2024/02/29 10:40:50;;;;;;;;;;;;;;;9.37;100.00;96102.31;5064246;28;19951;-70
2024/02/29 10:43:18;;;;;;;;;;;;;;;9.50;98.11;96078.59;5064214;28;19939;-71
2024/02/29 10:45:46;;;;;;;;;;;;;;;9.64;100.00;96114.06;5064738;28;19952;-71
2024/02/29 10:48:12;;;;;;;;;;;;;;;9.80;97.06;96064.72;5064105;28;19943;-71
2024/02/29 10:50:50;;;;;;;;;;;;;;;9.92;97.45;96060.34;5064689;28;20113;-71
2024/02/29 10:53:22;;;;;;;;;;;;;;;10.08;99.35;96062.31;5064603;28;19940;-71
2024/02/29 10:55:50;;;;;;;;;;;;;;;10.32;98.02;96059.78;5046307;28;19934;-71
2024/02/29 10:58:21;;;;;;;;;;;;;;;10.52;91.68;96009.63;5064508;28;19946;-71
2024/02/29 11:00:47;;;;;;;;;;;;;;;10.70;93.69;96035.75;5064880;28;19938;-72
2024/02/29 11:03:13;;;;;;;;;;;;;;;10.61;92.72;96016.16;5064548;28;20250;-70
2024/02/29 11:05:40;;;;;;;;;;;;;;;10.52;95.74;96038.47;5064351;28;19955;-72
2024/02/29 11:08:06;;;;;;;;;;;;;;;10.44;93.26;96031.75;5063813;28;19968;-73
2024/02/29 11:10:32;;;;;;;;;;;;;;;10.44;95.86;96033.59;5064631;28;19940;-72
2024/02/29 11:13:00;;;;;;;;;;;;;;;10.63;96.72;96042.94;5063829;28;19940;-72
2024/02/29 11:15:27;;;;;;;;;;;;;;;10.72;95.60;96025.84;5063791;28;20134;-72
2024/02/29 11:17:52;;;;;;;;;;;;;;;10.85;95.22;96008.25;5063847;28;19936;-72
2024/02/29 11:20:19;;;;;;;;;;;;;;;10.80;88.33;95976.69;5045985;28;19987;-72
2024/02/29 11:22:45;;;;;;;;;;;;;;;10.89;89.39;95962.97;5064333;28;19947;-69
2024/02/29 11:25:18;;;;;;;;;;;;;;;11.06;90.06;95951.75;5065347;28;19941;-69
2024/02/29 11:27:47;;;;;;;;;;;;;;;11.18;91.56;95965.66;5068503;28;19944;-69
2024/02/29 11:30:17;;;;;;;;;;;;;;;11.29;83.67;95924.63;5050136;28;20002;-69
2024/02/29 11:32:43;;;;;;;;;;;;;;;11.38;91.08;95949.47;5068679;28;19952;-69
2024/02/29 11:35:08;;;;;;;;;;;;;;;11.42;86.44;95918.31;5050563;28;20233;-69
2024/02/29 11:37:36;;;;;;;;;;;;;;;11.43;87.23;95928.56;5067700;28;19967;-72
2024/02/29 11:40:05;;;;;;;;;;;;;;;11.48;89.32;95935.75;5068487;28;20121;-72
2024/02/29 11:42:31;;;;;;;;;;;;;;;11.68;87.65;95922.97;5068158;28;19936;-70
2024/02/29 11:44:57;;;;;;;;;;;;;;;11.70;78.98;95873.63;5033368;28;20011;-70
2024/02/29 11:47:23;;;;;;;;;;;;;;;11.68;86.77;95919.56;5067969;28;19960;-70
2024/02/29 11:49:49;;;;;;;;;;;;;;;11.80;88.80;95920.28;5068044;28;20002;-70
2024/02/29 11:52:18;;;;;;;;;;;;;;;11.99;86.12;95897.22;5067346;28;19937;-70
2024/02/29 11:54:44;;;;;;;;;;;;;;;12.03;84.38;95895.69;5068219;28;19931;-70
2024/02/29 11:57:10;;;;;;;;;;;;;;;12.05;85.54;95898.84;5067363;28;19945;-70
2024/02/29 11:59:37;;;;;;;;;;;;;;;12.13;81.58;95877.44;5067642;28;19947;-73
2024/02/29 12:02:04;;;;;;;;;;;;;;;12.14;81.19;95868.53;5067291;28;20123;-72
2024/02/29 12:04:29;;;;;;;;;;;;;;;12.16;76.38;95849.91;5049273;28;19941;-72
2024/02/29 12:06:55;;;;;;;;;;;;;;;12.02;80.04;95861.78;5049972;28;19967;-72
2024/02/29 12:09:22;;;;;;;;;;;;;;;12.06;76.65;95845.28;5049286;28;19978;-72
2024/02/29 12:11:48;;;;;;;;;;;;;;;12.15;77.83;95846.44;5049960;28;19948;-72
2024/02/29 12:14:14;;;;;;;;;;;;;;;12.26;81.88;95859.72;5067579;28;20089;-75
2024/02/29 12:16:42;;;;;;;;;;;;;;;12.44;79.61;95840.25;5067059;28;19934;-71
2024/02/29 12:19:09;;;;;;;;;;;;;;;12.55;75.87;95811.19;5066925;28;20152;-72
2024/02/29 12:21:35;;;;;;;;;;;;;;;12.72;77.24;95823.47;5067471;28;20112;-72
2024/02/29 12:24:01;;;;;;;;;;;;;;;12.85;78.34;95838.09;5067296;28;19935;-72
2024/02/29 12:26:27;;;;;;;;;;;;;;;12.93;75.98;95813.97;5066692;28;19961;-72
2024/02/29 12:28:53;;;;;;;;;;;;;;;12.96;74.03;95800.31;5066767;28;19938;-72
2024/02/29 12:31:19;;;;;;;;;;;;;;;12.93;74.41;95943.69;5067233;28;19946;-72
2024/02/29 12:33:45;;;;;;;;;;;;;;;12.88;71.78;95966.53;5048905;28;20029;-72
2024/02/29 12:36:12;;;;;;;;;;;;;;;12.90;73.51;95975.78;5065442;28;20154;-72
2024/02/29 12:38:41;;;;;;;;;;;;;;;12.91;74.49;95976.56;5066594;28;19936;-73
2024/02/29 12:41:07;;;;;;;;;;;;;;;12.91;76.51;95979.22;5048647;28;20223;-73